Time;durP1;ratioP1;P1;durP2;ratioP2;P2;SDS_P1;SDS_P2;PMS_P1;PMS_P2;Temp;Humidity;BMP_temperature;BMP_pressure;BME280_temperature;BME280_humidity;BME280_pressure;Samples;Min_cycle;Max_cycle;Signal;HPM_P1;HPM_P2
2022/07/23 00:00:20;;;;;;;8.1;12.6;;;;;;;20;100;98580;;;;
2022/07/23 00:11:21;;;;;;;8.1;12.6;;;;;;;19.8;100;98580;;;;
2022/07/23 00:21:20;;;;;;;9.6;13.7;;;;;;;19.7;100;98580;;;;
2022/07/23 00:32:20;;;;;;;9.6;13.7;;;;;;;19.5;100;98580;;;;
2022/07/23 00:42:20;;;;;;;11.4;16.8;;;;;;;19.4;100;98580;;;;
2022/07/23 00:53:20;;;;;;;11.4;16.8;;;;;;;19.4;100;98590;;;;
2022/07/23 01:04:20;;;;;;;11.4;16.8;;;;;;;19.4;100;98580;;;;
2022/07/23 01:14:20;;;;;;;8.9;11.6;;;;;;;19.2;100;98590;;;;
2022/07/23 01:24:20;;;;;;;8.9;11.6;;;;;;;19.2;100;98580;;;;
2022/07/23 01:35:20;;;;;;;8.9;11.6;;;;;;;19;100;98580;;;;
2022/07/23 01:46:20;;;;;;;8.6;12.2;;;;;;;18.8;100;98590;;;;
2022/07/23 01:56:20;;;;;;;8.6;12.2;;;;;;;18.7;100;98590;;;;
2022/07/23 02:07:20;;;;;;;8.6;12.2;;;;;;;18.5;100;98580;;;;
2022/07/23 02:17:20;;;;;;;8.6;12.7;;;;;;;18.4;100;98580;;;;
2022/07/23 02:28:20;;;;;;;8.6;12.7;;;;;;;18.3;100;98590;;;;
2022/07/23 02:38:20;;;;;;;8.6;12.7;;;;;;;18.2;100;98570;;;;
2022/07/23 02:48:20;;;;;;;9.1;13;;;;;;;18.1;100;98590;;;;
2022/07/23 02:59:20;;;;;;;9.1;13;;;;;;;18;100;98590;;;;
2022/07/23 03:09:20;;;;;;;9.1;13;;;;;;;17.9;100;98590;;;;
2022/07/23 03:19:20;;;;;;;8.2;9.7;;;;;;;17.9;100;98580;;;;
2022/07/23 03:29:20;;;;;;;8.2;9.7;;;;;;;18;100;98560;;;;
2022/07/23 03:39:20;;;;;;;8.2;9.7;;;;;;;18.2;100;98570;;;;
2022/07/23 03:50:20;;;;;;;9.2;11.8;;;;;;;18.3;100;98570;;;;
2022/07/23 04:00:20;;;;;;;9.2;11.8;;;;;;;18.7;100;98580;;;;
2022/07/23 04:10:20;;;;;;;9.2;11.8;;;;;;;18.9;100;98570;;;;
2022/07/23 04:21:20;;;;;;;9.6;12;;;;;;;19.2;100;98580;;;;
2022/07/23 04:32:20;;;;;;;9.6;12;;;;;;;19.5;100;98570;;;;
2022/07/23 04:43:20;;;;;;;10.3;16.6;;;;;;;20.1;100;98570;;;;
2022/07/23 04:53:20;;;;;;;10.3;16.6;;;;;;;20.8;100;98580;;;;
2022/07/23 05:03:20;;;;;;;10.3;16.6;;;;;;;21.3;100;98570;;;;
2022/07/23 05:13:20;;;;;;;8.9;14.2;;;;;;;21.6;100;98570;;;;
2022/07/23 05:23:20;;;;;;;8.9;14.2;;;;;;;22.1;100;98570;;;;
2022/07/23 05:34:20;;;;;;;8.9;14.2;;;;;;;22.7;100;98580;;;;
2022/07/23 05:44:20;;;;;;;8.6;11.6;;;;;;;23;100;98560;;;;
2022/07/23 05:54:20;;;;;;;8.6;11.6;;;;;;;23.2;100;98570;;;;
2022/07/23 06:04:20;;;;;;;8.6;11.6;;;;;;;23.8;100;98560;;;;
2022/07/23 06:14:20;;;;;;;8.9;12.3;;;;;;;24.1;100;98560;;;;
2022/07/23 06:25:20;;;;;;;8.9;12.3;;;;;;;24.6;100;98560;;;;
2022/07/23 06:35:20;;;;;;;8.9;12.3;;;;;;;24.9;100;98550;;;;
2022/07/23 06:46:21;;;;;;;7.2;10;;;;;;;25.1;100;98540;;;;
2022/07/23 06:56:20;;;;;;;7.2;10;;;;;;;25.5;100;98540;;;;
2022/07/23 07:07:20;;;;;;;7.2;10;;;;;;;25.9;100;98540;;;;
2022/07/23 07:18:20;;;;;;;8.5;10.8;;;;;;;26;100;98530;;;;
2022/07/23 07:28:20;;;;;;;8.5;10.8;;;;;;;26.4;100;98520;;;;
2022/07/23 07:39:20;;;;;;;8.5;10.8;;;;;;;27.1;100;98510;;;;
2022/07/23 07:49:21;;;;;;;8.7;13.2;;;;;;;27.4;100;98510;;;;
2022/07/23 08:00:20;;;;;;;8.7;13.2;;;;;;;27.9;100;98520;;;;
2022/07/23 08:10:20;;;;;;;8.7;13.2;;;;;;;28.2;100;98540;;;;
2022/07/23 08:21:20;;;;;;;7.2;10.6;;;;;;;28.8;100;98540;;;;
2022/07/23 08:31:20;;;;;;;7.2;10.6;;;;;;;29.1;100;98540;;;;
2022/07/23 08:41:20;;;;;;;7.2;10.6;;;;;;;29.8;100;98530;;;;
2022/07/23 08:52:20;;;;;;;6.9;11.4;;;;;;;30;100;98510;;;;
2022/07/23 09:03:20;;;;;;;6.9;11.4;;;;;;;30.7;99.9;98490;;;;
2022/07/23 09:13:21;;;;;;;6.4;10.5;;;;;;;30.4;93.8;98490;;;;
2022/07/23 09:24:20;;;;;;;6.4;10.5;;;;;;;30.9;88.8;98500;;;;
2022/07/23 09:34:20;;;;;;;6.4;10.5;;;;;;;30.9;93.3;98500;;;;
2022/07/23 09:45:20;;;;;;;6.9;10;;;;;;;31.2;90.8;98480;;;;
2022/07/23 09:55:20;;;;;;;6.9;10;;;;;;;31.5;91.5;98480;;;;
2022/07/23 10:06:20;;;;;;;6.9;10;;;;;;;31.5;88.7;98470;;;;
2022/07/23 10:16:20;;;;;;;6;11.1;;;;;;;31.9;90.4;98470;;;;
2022/07/23 10:26:20;;;;;;;6;11.1;;;;;;;32.4;77.6;98470;;;;
2022/07/23 10:37:22;;;;;;;6;11.1;;;;;;;32.5;72.1;98460;;;;
2022/07/23 10:48:20;;;;;;;6;8.7;;;;;;;33.5;64.4;98460;;;;
2022/07/23 10:58:20;;;;;;;6;8.7;;;;;;;33.6;66.5;98450;;;;
2022/07/23 11:08:20;;;;;;;6;8.7;;;;;;;33.4;68.2;98430;;;;
2022/07/23 11:19:20;;;;;;;5.1;7.7;;;;;;;32.9;58.2;98420;;;;
2022/07/23 11:29:20;;;;;;;5.1;7.7;;;;;;;33.2;60.4;98420;;;;
2022/07/23 11:40:20;;;;;;;5.1;7.7;;;;;;;33.5;59.9;98410;;;;
2022/07/23 11:50:20;;;;;;;5.5;9.2;;;;;;;33.8;60;98390;;;;
2022/07/23 12:00:20;;;;;;;5.5;9.2;;;;;;;33.9;61.1;98380;;;;
2022/07/23 12:11:20;;;;;;;5.5;9.2;;;;;;;33.9;58.3;98360;;;;
2022/07/23 12:22:20;;;;;;;5.4;8.2;;;;;;;33.8;58.5;98350;;;;
2022/07/23 12:33:20;;;;;;;5.4;8.2;;;;;;;34;59.6;98340;;;;
2022/07/23 12:44:20;;;;;;;5.2;8.7;;;;;;;34.2;58.9;98330;;;;
2022/07/23 12:55:21;;;;;;;5.2;8.7;;;;;;;34.3;55.9;98320;;;;
2022/07/23 13:06:20;;;;;;;5.2;8.7;;;;;;;34.2;59.9;98300;;;;
2022/07/23 13:16:20;;;;;;;5.4;8.7;;;;;;;34.7;57.4;98290;;;;
2022/07/23 13:27:20;;;;;;;5.4;8.7;;;;;;;35;57.1;98290;;;;
2022/07/23 13:37:20;;;;;;;5.4;8.7;;;;;;;34.3;58.2;98280;;;;
2022/07/23 13:47:20;;;;;;;6.2;8.4;;;;;;;34.2;59.8;98280;;;;
2022/07/23 13:58:20;;;;;;;6.2;8.4;;;;;;;34.1;57.8;98260;;;;
2022/07/23 14:08:20;;;;;;;6.2;8.4;;;;;;;33.8;58.9;98250;;;;
2022/07/23 14:18:20;;;;;;;5.9;10.1;;;;;;;33.2;59.5;98210;;;;
2022/07/23 14:29:20;;;;;;;5.9;10.1;;;;;;;32.6;65.2;98170;;;;
2022/07/23 14:40:20;;;;;;;5.9;10.1;;;;;;;31.7;69.9;98200;;;;
2022/07/23 14:50:20;;;;;;;6.8;10;;;;;;;31.1;70.7;98260;;;;
2022/07/23 15:01:20;;;;;;;6.8;10;;;;;;;28.7;79.5;98390;;;;
2022/07/23 15:11:20;;;;;;;6.8;10;;;;;;;24.2;100;98280;;;;
2022/07/23 15:21:20;;;;;;;8.8;26.5;;;;;;;22;100;98360;;;;
2022/07/23 15:31:20;;;;;;;8.8;26.5;;;;;;;22;100;98370;;;;
2022/07/23 15:42:20;;;;;;;8.8;26.5;;;;;;;22.3;100;98410;;;;
2022/07/23 15:52:20;;;;;;;5.4;8;;;;;;;22.6;100;98430;;;;
2022/07/23 16:03:20;;;;;;;5.4;8;;;;;;;22.8;100;98460;;;;
2022/07/23 16:13:20;;;;;;;5.5;8.6;;;;;;;23.1;100;98410;;;;
2022/07/23 16:24:20;;;;;;;5.5;8.6;;;;;;;23;100;98320;;;;
2022/07/23 16:35:20;;;;;;;5.5;8.6;;;;;;;25.2;100;98330;;;;
2022/07/23 16:45:20;;;;;;;6.8;10.5;;;;;;;25.8;100;98380;;;;
2022/07/23 16:55:20;;;;;;;6.8;10.5;;;;;;;27.4;100;98400;;;;
2022/07/23 17:06:20;;;;;;;6.8;10.5;;;;;;;26.8;100;98460;;;;
2022/07/23 17:17:20;;;;;;;6.3;8.6;;;;;;;25.9;100;98480;;;;
2022/07/23 17:28:20;;;;;;;6.3;8.6;;;;;;;24.8;100;98500;;;;
2022/07/23 17:38:20;;;;;;;6.3;8.6;;;;;;;24.4;100;98490;;;;
2022/07/23 17:49:20;;;;;;;6.1;10.2;;;;;;;23.9;100;98500;;;;
2022/07/23 17:59:20;;;;;;;6.1;10.2;;;;;;;23.7;100;98500;;;;
2022/07/23 18:09:20;;;;;;;6.1;10.2;;;;;;;23.3;100;98480;;;;
2022/07/23 18:19:20;;;;;;;7.8;9.7;;;;;;;23;100;98530;;;;
2022/07/23 18:30:20;;;;;;;7.8;9.7;;;;;;;22.5;100;98600;;;;
2022/07/23 18:40:20;;;;;;;7.8;9.7;;;;;;;22.3;100;98560;;;;
2022/07/23 18:50:21;;;;;;;9.6;14;;;;;;;22.3;100;98560;;;;
2022/07/23 19:00:20;;;;;;;9.6;14;;;;;;;22.3;100;98560;;;;
2022/07/23 19:10:20;;;;;;;9.6;14;;;;;;;22.1;100;98570;;;;
2022/07/23 19:21:20;;;;;;;11;15.7;;;;;;;21.9;100;98560;;;;
2022/07/23 19:32:20;;;;;;;11;15.7;;;;;;;21.8;100;98560;;;;
2022/07/23 19:42:20;;;;;;;11;15.7;;;;;;;21.6;100;98550;;;;
2022/07/23 19:53:20;;;;;;;10.4;17.4;;;;;;;21.4;100;98550;;;;
2022/07/23 20:03:20;;;;;;;10.4;17.4;;;;;;;21.1;100;98530;;;;
2022/07/23 20:14:20;;;;;;;10.7;15.4;;;;;;;21;100;98560;;;;
2022/07/23 20:25:20;;;;;;;10.7;15.4;;;;;;;21.1;100;98570;;;;
2022/07/23 20:36:20;;;;;;;10.7;15.4;;;;;;;21.1;100;98570;;;;
2022/07/23 20:46:20;;;;;;;10.9;15.6;;;;;;;21;100;98580;;;;
2022/07/23 20:57:20;;;;;;;10.9;15.6;;;;;;;20.7;100;98580;;;;
2022/07/23 21:08:20;;;;;;;10.9;15.6;;;;;;;20.7;100;98570;;;;
2022/07/23 21:18:20;;;;;;;9.2;13.1;;;;;;;20.7;100;98570;;;;
2022/07/23 21:28:20;;;;;;;9.2;13.1;;;;;;;20.5;100;98600;;;;
2022/07/23 21:38:20;;;;;;;9.2;13.1;;;;;;;20.3;100;98590;;;;
2022/07/23 21:48:22;;;;;;;12.6;17.4;;;;;;;20.2;100;98610;;;;
2022/07/23 21:59:20;;;;;;;12.6;17.4;;;;;;;20.3;100;98610;;;;
2022/07/23 22:10:20;;;;;;;12.6;17.4;;;;;;;20.3;100;98620;;;;
2022/07/23 22:20:22;;;;;;;12.9;15.3;;;;;;;20.4;100;98620;;;;
2022/07/23 22:31:20;;;;;;;12.9;15.3;;;;;;;20.5;100;98610;;;;
2022/07/23 22:41:20;;;;;;;12.9;15.3;;;;;;;20.5;100;98620;;;;
2022/07/23 22:52:20;;;;;;;12.6;18.6;;;;;;;20.4;100;98620;;;;
2022/07/23 23:02:20;;;;;;;12.6;18.6;;;;;;;20.3;100;98630;;;;
2022/07/23 23:12:20;;;;;;;12.6;18.6;;;;;;;20.2;100;98630;;;;
2022/07/23 23:23:20;;;;;;;12.6;15.6;;;;;;;20;100;98630;;;;
2022/07/23 23:34:20;;;;;;;12.6;15.6;;;;;;;19.7;100;98640;;;;
2022/07/23 23:44:21;;;;;;;14.4;21;;;;;;;19.7;100;98630;;;;
2022/07/23 23:54:20;;;;;;;14.4;21;;;;;;;19.9;100;98650;;;;
